Terminal Aerodrome Forecast
Issued by NWS Sioux Falls, SD

Home | Current Version | Previous Version | Text Only | Print | Product List | Glossary Off
Versions: 1 2 3 4 5 6 7 8 9 10 11 12 13 14

638
FTUS43 KFSD 271129
TAFFSD
TAF
KFSD 271129Z 2712/2812 17011KT P6SM FEW250
     FM271600 17018G26KT P6SM SCT250
     FM280100 16016G24KT P6SM BKN080
     FM280400 16016G24KT 6SM SHRA OVC070
      TEMPO 2804/2806 VRB25G40KT 3SM TSRA BKN035CB
     FM280600 17017G25KT 6SM SHRA OVC030
      TEMPO 2806/2808 5SM TSRA BKN015CB
     FM280900 17012KT P6SM OVC025=

USA.gov is the U.S. government's official web portal to all federal, state and local government web resources and services.